createdAt,value
2019-03-22T00:00:02.561Z,46.30
2019-03-22T00:01:13.016Z,46.24
2019-03-22T00:02:20.700Z,47.10
2019-03-22T00:03:27.538Z,47.26
2019-03-22T00:04:33.872Z,48.36
2019-03-22T00:05:40.742Z,47.20
2019-03-22T00:06:47.396Z,47.72
2019-03-22T00:07:53.170Z,47.29
2019-03-22T00:08:59.279Z,48.45
2019-03-22T00:10:05.243Z,47.73
2019-03-22T00:11:11.346Z,47.59
2019-03-22T00:12:18.287Z,47.22
2019-03-22T00:13:24.931Z,47.11
2019-03-22T00:14:31.108Z,47.42
2019-03-22T00:15:37.491Z,47.85
2019-03-22T00:16:43.702Z,46.66
2019-03-22T00:17:49.439Z,45.93
2019-03-22T00:18:56.053Z,45.70
2019-03-22T00:20:02.078Z,45.41
2019-03-22T00:21:07.631Z,46.13
2019-03-22T00:22:13.952Z,45.61
2019-03-22T00:23:19.955Z,45.45
2019-03-22T00:24:26.120Z,45.25
2019-03-22T00:25:32.513Z,45.57
2019-03-22T00:26:38.939Z,45.79
2019-03-22T00:27:45.359Z,45.78
2019-03-22T00:28:51.852Z,45.77
2019-03-22T00:29:58.516Z,46.19
2019-03-22T00:31:04.347Z,46.39
2019-03-22T00:32:11.213Z,44.96
2019-03-22T00:33:18.947Z,45.71
2019-03-22T00:34:26.657Z,46.09
2019-03-22T00:35:34.359Z,46.72
2019-03-22T00:36:40.931Z,47.35
2019-03-22T00:37:46.740Z,47.14
2019-03-22T00:38:53.072Z,46.63
2019-03-22T00:39:59.173Z,46.19
2019-03-22T00:41:06.176Z,46.21
2019-03-22T00:42:11.988Z,46.71
2019-03-22T00:43:18.049Z,46.28
2019-03-22T00:44:25.634Z,46.04
2019-03-22T00:45:32.542Z,46.35
2019-03-22T00:46:39.150Z,46.20
2019-03-22T00:47:45.276Z,45.94
2019-03-22T00:48:51.023Z,46.63
2019-03-22T00:49:57.745Z,46.61
2019-03-22T00:51:04.064Z,47.13
2019-03-22T00:52:11.085Z,46.51
2019-03-22T00:53:17.131Z,46.30
2019-03-22T00:54:24.002Z,46.49
2019-03-22T00:55:29.814Z,46.81
2019-03-22T00:56:35.300Z,47.55
2019-03-22T00:57:42.153Z,46.54
2019-03-22T00:58:48.230Z,46.79
2019-03-22T00:59:54.047Z,46.55
2019-03-22T01:01:00.336Z,46.63
2019-03-22T01:02:06.921Z,47.01
2019-03-22T01:03:13.459Z,46.71
2019-03-22T01:04:19.749Z,46.04
2019-03-22T01:05:25.810Z,46.27
2019-03-22T01:06:32.213Z,46.59
2019-03-22T01:07:38.774Z,46.44
2019-03-22T01:08:44.567Z,46.45
2019-03-22T01:09:51.202Z,47.08
2019-03-22T01:10:57.929Z,46.71
2019-03-22T01:12:04.920Z,45.48
2019-03-22T01:13:11.358Z,46.49
2019-03-22T01:14:17.574Z,46.20
2019-03-22T01:15:24.588Z,46.17
2019-03-22T01:16:30.646Z,46.07
2019-03-22T01:17:36.702Z,46.74
2019-03-22T01:18:43.375Z,46.37
2019-03-22T01:19:49.416Z,47.15
2019-03-22T01:20:56.476Z,47.40
2019-03-22T01:22:02.694Z,46.47
2019-03-22T01:23:08.853Z,47.02
2019-03-22T01:24:14.930Z,46.75
2019-03-22T01:25:21.784Z,46.83
2019-03-22T01:26:28.893Z,47.13
2019-03-22T01:27:40.335Z,46.59
2019-03-22T01:28:43.545Z,46.48
2019-03-22T01:29:50.376Z,46.78
2019-03-22T01:30:56.297Z,47.45
2019-03-22T01:32:02.638Z,46.37
2019-03-22T01:33:08.392Z,46.32
2019-03-22T01:34:14.750Z,46.69
2019-03-22T01:35:20.916Z,47.38
2019-03-22T01:36:28.396Z,46.96
2019-03-22T01:37:36.051Z,47.34
2019-03-22T01:38:41.849Z,46.95
2019-03-22T01:39:47.994Z,47.18
2019-03-22T01:40:54.109Z,46.59
2019-03-22T01:42:00.280Z,47.28
2019-03-22T01:43:07.659Z,47.84
2019-03-22T01:44:14.245Z,47.13
2019-03-22T01:45:20.351Z,47.28
2019-03-22T01:46:27.041Z,47.08
2019-03-22T01:47:33.109Z,47.40
2019-03-22T01:48:39.709Z,47.23
2019-03-22T01:49:46.360Z,47.52
2019-03-22T01:50:53.188Z,47.79
2019-03-22T01:51:59.835Z,47.71
2019-03-22T01:53:05.907Z,48.23
2019-03-22T01:54:12.674Z,47.87
2019-03-22T01:55:19.245Z,48.07
2019-03-22T01:56:24.996Z,48.17
2019-03-22T01:57:32.658Z,47.99
2019-03-22T01:58:38.424Z,48.10
2019-03-22T01:59:45.546Z,48.30
2019-03-22T02:00:52.884Z,48.24
2019-03-22T02:01:59.064Z,47.89
2019-03-22T02:03:06.790Z,48.73
2019-03-22T02:04:13.250Z,47.88
2019-03-22T02:05:19.274Z,48.34
2019-03-22T02:06:25.128Z,48.34
2019-03-22T02:07:32.209Z,48.32
2019-03-22T02:08:38.621Z,48.07
2019-03-22T02:09:45.333Z,48.17
2019-03-22T02:10:51.755Z,48.08
2019-03-22T02:11:58.469Z,48.66
2019-03-22T02:13:05.458Z,47.72
2019-03-22T02:14:12.148Z,48.25
2019-03-22T02:15:17.903Z,48.32
2019-03-22T02:16:23.978Z,47.76
2019-03-22T02:17:30.121Z,48.41
2019-03-22T02:18:36.495Z,48.89
2019-03-22T02:19:43.099Z,48.34
2019-03-22T02:20:49.153Z,48.49
2019-03-22T02:21:55.212Z,49.09
2019-03-22T02:23:01.439Z,48.47
2019-03-22T02:24:06.995Z,48.20
2019-03-22T02:25:13.774Z,48.57
2019-03-22T02:26:20.331Z,48.45
2019-03-22T02:27:26.711Z,48.84
2019-03-22T02:28:34.093Z,48.82
2019-03-22T02:29:40.909Z,48.99
2019-03-22T02:30:47.119Z,48.39
2019-03-22T02:31:53.483Z,48.09
2019-03-22T02:33:00.255Z,48.74
2019-03-22T02:34:06.296Z,48.78
2019-03-22T02:35:27.326Z,49.20
2019-03-22T02:36:20.041Z,49.31
2019-03-22T02:37:25.881Z,49.64
2019-03-22T02:38:32.813Z,49.75
2019-03-22T02:39:38.675Z,48.71
2019-03-22T02:40:45.634Z,48.83
2019-03-22T02:41:52.491Z,48.68
2019-03-22T02:42:58.261Z,49.30
2019-03-22T02:44:04.361Z,49.36
2019-03-22T02:45:11.195Z,49.95
2019-03-22T02:46:17.236Z,48.27
2019-03-22T02:47:24.379Z,49.23
2019-03-22T02:48:30.981Z,49.13
2019-03-22T02:49:37.584Z,49.16
2019-03-22T02:50:44.211Z,49.14
2019-03-22T02:51:50.759Z,48.55
2019-03-22T02:52:56.545Z,50.09
2019-03-22T02:54:03.361Z,49.15
2019-03-22T02:55:10.390Z,49.78
2019-03-22T02:56:16.261Z,49.74
2019-03-22T02:57:22.113Z,49.19
2019-03-22T02:58:28.169Z,50.10
2019-03-22T02:59:33.924Z,50.53
2019-03-22T03:00:40.562Z,50.16
2019-03-22T03:01:46.316Z,49.84
2019-03-22T03:02:52.368Z,49.55
2019-03-22T03:03:58.668Z,49.45
2019-03-22T03:05:05.211Z,49.45
2019-03-22T03:06:11.255Z,49.79
2019-03-22T03:07:17.331Z,48.78
2019-03-22T03:08:23.386Z,48.50
2019-03-22T03:09:31.058Z,48.70
2019-03-22T03:10:37.130Z,49.03
2019-03-22T03:11:46.773Z,49.20
2019-03-22T03:12:52.569Z,48.91
2019-03-22T03:13:59.091Z,48.69
2019-03-22T03:15:05.853Z,48.77
2019-03-22T03:16:12.070Z,48.58
2019-03-22T03:17:19.491Z,48.75
2019-03-22T03:18:25.580Z,49.14
2019-03-22T03:19:33.001Z,48.71
2019-03-22T03:20:39.651Z,48.69
2019-03-22T03:21:48.500Z,48.73
2019-03-22T03:22:54.852Z,49.46
2019-03-22T03:24:02.257Z,48.69
2019-03-22T03:25:09.687Z,48.60
2019-03-22T03:26:15.496Z,48.15
2019-03-22T03:27:21.005Z,48.05
2019-03-22T03:28:36.474Z,48.07
2019-03-22T03:29:35.043Z,47.70
2019-03-22T03:30:41.477Z,48.07
2019-03-22T03:31:48.305Z,48.37
2019-03-22T03:32:54.095Z,48.71
2019-03-22T03:34:00.733Z,49.10
2019-03-22T03:35:07.671Z,48.69
2019-03-22T03:36:13.727Z,49.27
2019-03-22T03:37:19.850Z,49.17
2019-03-22T03:38:26.773Z,49.36
2019-03-22T03:39:33.445Z,49.12
2019-03-22T03:40:39.187Z,48.48
2019-03-22T03:41:44.961Z,48.72
2019-03-22T03:42:52.100Z,49.19
2019-03-22T03:43:58.514Z,49.70
2019-03-22T03:45:04.277Z,49.60
2019-03-22T03:46:10.310Z,49.82
2019-03-22T03:47:16.132Z,49.79
2019-03-22T03:48:23.851Z,49.92
2019-03-22T03:49:30.271Z,50.00
2019-03-22T03:50:36.216Z,50.65
2019-03-22T03:51:43.145Z,50.29
2019-03-22T03:52:48.958Z,49.39
2019-03-22T03:53:56.485Z,48.64
2019-03-22T03:55:02.854Z,48.93
2019-03-22T03:56:08.634Z,48.98
2019-03-22T03:57:15.009Z,50.45
2019-03-22T03:58:20.801Z,49.72
2019-03-22T03:59:27.648Z,50.13
2019-03-22T04:00:33.737Z,49.91
2019-03-22T04:01:39.497Z,49.26
2019-03-22T04:02:45.587Z,49.80
2019-03-22T04:03:51.668Z,49.34
2019-03-22T04:04:57.800Z,49.27
2019-03-22T04:06:03.891Z,49.25
2019-03-22T04:07:10.718Z,49.32
2019-03-22T04:08:16.790Z,49.29
2019-03-22T04:09:23.700Z,49.13
2019-03-22T04:10:30.296Z,48.78
2019-03-22T04:11:36.698Z,48.96
2019-03-22T04:12:43.588Z,48.89
2019-03-22T04:13:50.796Z,49.28
2019-03-22T04:14:57.448Z,49.89
2019-03-22T04:16:03.576Z,50.36
2019-03-22T04:17:09.276Z,50.82
2019-03-22T04:18:16.480Z,50.77
2019-03-22T04:19:23.611Z,51.14
2019-03-22T04:20:30.964Z,50.27
2019-03-22T04:21:36.741Z,51.27
2019-03-22T04:22:43.788Z,50.72
2019-03-22T04:23:50.282Z,50.95
2019-03-22T04:24:56.397Z,51.40
2019-03-22T04:26:03.370Z,51.02
2019-03-22T04:27:09.497Z,50.26
2019-03-22T04:28:19.118Z,50.04
2019-03-22T04:29:25.157Z,49.57
2019-03-22T04:30:32.860Z,50.54
2019-03-22T04:31:40.180Z,50.70
2019-03-22T04:32:47.142Z,51.06
2019-03-22T04:33:53.217Z,51.01
2019-03-22T04:34:59.381Z,50.90
2019-03-22T04:36:06.239Z,50.91
2019-03-22T04:37:12.975Z,50.33
2019-03-22T04:38:19.382Z,51.03
2019-03-22T04:39:25.950Z,50.09
2019-03-22T04:40:32.264Z,49.66
2019-03-22T04:41:38.587Z,50.12
2019-03-22T04:42:45.423Z,50.71
2019-03-22T04:43:51.371Z,50.40
2019-03-22T04:44:57.193Z,50.43
2019-03-22T04:46:04.146Z,51.08
2019-03-22T04:47:13.005Z,50.67
2019-03-22T04:48:25.144Z,50.61
2019-03-22T04:49:31.896Z,50.16
2019-03-22T04:50:39.545Z,49.87
2019-03-22T04:51:46.183Z,49.91
2019-03-22T04:52:54.001Z,49.57
2019-03-22T04:54:03.816Z,49.75
2019-03-22T04:55:10.323Z,50.28
2019-03-22T04:56:19.805Z,49.85
2019-03-22T04:57:25.857Z,50.16
2019-03-22T04:58:33.344Z,51.26
2019-03-22T04:59:40.737Z,51.17
2019-03-22T05:00:48.749Z,50.60
2019-03-22T05:01:57.073Z,50.04
2019-03-22T05:03:04.285Z,49.60
2019-03-22T05:04:11.889Z,50.29
2019-03-22T05:05:20.111Z,49.95
2019-03-22T05:06:27.346Z,49.47
2019-03-22T05:07:33.999Z,49.49
2019-03-22T05:08:41.457Z,49.29
2019-03-22T05:09:49.209Z,49.49
2019-03-22T05:10:58.450Z,49.50
2019-03-22T05:12:08.488Z,49.39
2019-03-22T05:13:20.847Z,49.72
2019-03-22T05:14:27.546Z,49.83
2019-03-22T05:15:36.316Z,49.96
2019-03-22T05:16:45.689Z,50.20
2019-03-22T05:17:52.016Z,50.51
2019-03-22T05:19:00.393Z,50.32
2019-03-22T05:20:06.558Z,50.17
2019-03-22T05:21:15.451Z,50.13
2019-03-22T05:22:23.534Z,50.32
2019-03-22T05:23:30.936Z,50.57
2019-03-22T05:24:39.817Z,50.92
2019-03-22T05:25:48.919Z,50.18
2019-03-22T05:26:56.859Z,49.83
2019-03-22T05:28:04.948Z,50.03
2019-03-22T05:29:14.421Z,51.04
2019-03-22T05:31:01.558Z,50.54
2019-03-22T05:32:09.229Z,49.86
2019-03-22T05:33:16.149Z,50.49
2019-03-22T05:34:23.915Z,49.45
2019-03-22T05:35:30.820Z,49.24
2019-03-22T05:36:38.033Z,49.89
2019-03-22T05:37:44.126Z,49.76
2019-03-22T05:38:50.126Z,49.65
2019-03-22T05:39:58.553Z,49.61
2019-03-22T05:41:05.923Z,49.44
2019-03-22T05:42:11.986Z,49.76
2019-03-22T05:43:17.801Z,49.24
2019-03-22T05:44:24.953Z,49.32
2019-03-22T05:45:30.696Z,49.38
2019-03-22T05:46:36.759Z,49.77
2019-03-22T05:47:43.232Z,49.85
2019-03-22T05:48:49.631Z,49.55
2019-03-22T05:49:55.591Z,49.43
2019-03-22T05:51:02.524Z,49.97
2019-03-22T05:52:08.620Z,49.56
2019-03-22T05:53:14.714Z,49.32
2019-03-22T05:54:22.363Z,49.12
2019-03-22T05:55:29.553Z,49.03
2019-03-22T05:56:35.351Z,49.20
2019-03-22T05:57:42.584Z,49.14
2019-03-22T05:58:49.958Z,49.10
2019-03-22T05:59:56.380Z,49.17
2019-03-22T06:01:02.240Z,49.79
2019-03-22T06:02:08.312Z,50.08
2019-03-22T06:03:14.295Z,50.01
2019-03-22T06:04:21.114Z,49.54
2019-03-22T06:05:28.411Z,49.65
2019-03-22T06:06:35.307Z,49.41
2019-03-22T06:07:41.369Z,48.78
2019-03-22T06:08:47.426Z,49.22
2019-03-22T06:09:53.621Z,49.47
2019-03-22T06:11:00.258Z,49.94
2019-03-22T06:12:05.861Z,50.72
2019-03-22T06:13:11.623Z,50.93
2019-03-22T06:14:18.087Z,50.38
2019-03-22T06:15:24.269Z,50.00
2019-03-22T06:16:30.032Z,49.92
2019-03-22T06:17:36.357Z,49.90
2019-03-22T06:18:42.303Z,49.58
2019-03-22T06:19:48.547Z,49.06
2019-03-22T06:20:55.569Z,48.27
2019-03-22T06:22:02.223Z,47.85
2019-03-22T06:23:09.069Z,48.33
2019-03-22T06:24:15.283Z,47.84
2019-03-22T06:25:21.387Z,48.09
2019-03-22T06:26:27.140Z,48.59
2019-03-22T06:27:33.654Z,48.73
2019-03-22T06:28:40.003Z,48.38
2019-03-22T06:29:54.099Z,48.01
2019-03-22T06:30:54.442Z,47.93
2019-03-22T06:32:00.324Z,47.96
2019-03-22T06:33:06.414Z,47.05
2019-03-22T06:34:12.485Z,47.44
2019-03-22T06:35:20.195Z,47.88
2019-03-22T06:36:26.263Z,47.71
2019-03-22T06:37:31.950Z,48.22
2019-03-22T06:38:37.995Z,47.31
2019-03-22T06:39:44.048Z,47.64
2019-03-22T06:40:51.157Z,46.83
2019-03-22T06:41:58.672Z,47.49
2019-03-22T06:43:04.739Z,47.43
2019-03-22T06:44:10.687Z,47.92
2019-03-22T06:45:17.319Z,47.23
2019-03-22T06:46:23.931Z,46.95
2019-03-22T06:47:30.628Z,47.02
2019-03-22T06:48:37.566Z,47.95
2019-03-22T06:49:44.994Z,47.67
2019-03-22T06:50:51.064Z,46.80
2019-03-22T06:51:57.266Z,46.18
2019-03-22T06:53:04.282Z,45.77
2019-03-22T06:54:10.035Z,45.55
2019-03-22T06:55:15.787Z,45.72
2019-03-22T06:56:21.609Z,45.45
2019-03-22T06:57:28.434Z,45.17
2019-03-22T06:58:34.790Z,44.70
2019-03-22T06:59:40.789Z,44.83
2019-03-22T07:00:47.424Z,44.27
2019-03-22T07:01:54.912Z,44.69
2019-03-22T07:03:01.762Z,43.83
2019-03-22T07:04:08.303Z,44.01
2019-03-22T07:05:14.402Z,44.02
2019-03-22T07:06:20.214Z,44.25
2019-03-22T07:07:25.736Z,44.74
2019-03-22T07:08:32.458Z,44.18
2019-03-22T07:09:38.870Z,43.60
2019-03-22T07:10:46.675Z,43.33
2019-03-22T07:11:52.412Z,44.04
2019-03-22T07:12:59.268Z,43.12
2019-03-22T07:14:05.121Z,43.02
2019-03-22T07:15:10.994Z,42.95
2019-03-22T07:16:17.399Z,43.49
2019-03-22T07:17:22.969Z,43.37
2019-03-22T07:18:29.835Z,43.34
2019-03-22T07:19:35.612Z,44.84
2019-03-22T07:20:42.487Z,43.91
2019-03-22T07:21:49.302Z,42.99
2019-03-22T07:22:56.572Z,42.38
2019-03-22T07:24:03.359Z,42.53
2019-03-22T07:25:09.305Z,42.75
2019-03-22T07:26:16.710Z,42.00
2019-03-22T07:27:29.442Z,41.94
2019-03-22T07:28:35.132Z,41.34
2019-03-22T07:29:41.089Z,41.36
2019-03-22T07:30:48.027Z,40.77
2019-03-22T07:31:54.181Z,40.90
2019-03-22T07:33:00.750Z,39.95
2019-03-22T07:34:06.840Z,39.55
2019-03-22T07:35:12.706Z,38.56
2019-03-22T07:36:19.044Z,39.68
2019-03-22T07:37:25.578Z,38.76
2019-03-22T07:38:31.632Z,38.12
2019-03-22T07:39:37.683Z,37.84
2019-03-22T07:40:43.479Z,38.18
2019-03-22T07:41:51.779Z,37.95
2019-03-22T07:42:58.896Z,37.39
2019-03-22T07:44:06.339Z,38.63
2019-03-22T07:45:13.022Z,37.85
2019-03-22T07:46:19.066Z,37.92
2019-03-22T07:47:24.804Z,38.67
2019-03-22T07:48:31.735Z,37.38
2019-03-22T07:49:37.590Z,36.69
2019-03-22T07:50:43.623Z,36.53
2019-03-22T07:51:49.952Z,36.95
2019-03-22T07:52:57.475Z,36.46
2019-03-22T07:54:03.820Z,36.72
2019-03-22T07:55:10.849Z,37.19
2019-03-22T07:56:18.461Z,36.70
2019-03-22T07:57:24.233Z,36.87
2019-03-22T07:58:30.890Z,36.91
2019-03-22T07:59:38.056Z,36.92
2019-03-22T08:00:44.877Z,36.38
2019-03-22T08:01:50.918Z,36.43
2019-03-22T08:02:57.364Z,35.52
2019-03-22T08:04:04.253Z,36.05
2019-03-22T08:05:10.498Z,35.47
2019-03-22T08:06:16.548Z,35.51
2019-03-22T08:07:22.468Z,34.87
2019-03-22T08:08:28.537Z,34.37
2019-03-22T08:09:35.698Z,35.12
2019-03-22T08:10:42.016Z,34.17
2019-03-22T08:11:48.134Z,34.03
2019-03-22T08:12:55.014Z,34.31
2019-03-22T08:14:01.971Z,34.59
2019-03-22T08:15:08.723Z,35.05
2019-03-22T08:16:15.261Z,36.32
2019-03-22T08:17:21.647Z,34.24
2019-03-22T08:18:28.840Z,33.33
2019-03-22T08:19:34.809Z,32.16
2019-03-22T08:20:42.250Z,32.16
2019-03-22T08:21:48.418Z,31.69
2019-03-22T08:22:54.299Z,30.66
2019-03-22T08:23:59.975Z,29.14
2019-03-22T08:25:05.743Z,29.14
2019-03-22T08:26:12.181Z,27.33
2019-03-22T08:27:19.076Z,25.57
2019-03-22T08:28:26.413Z,25.38
2019-03-22T08:29:32.507Z,22.63
2019-03-22T08:30:43.236Z,22.22
2019-03-22T08:31:46.808Z,23.03
2019-03-22T08:32:52.916Z,21.78
2019-03-22T08:34:00.445Z,20.81
2019-03-22T08:35:07.111Z,20.65
2019-03-22T08:36:14.940Z,20.55
2019-03-22T08:37:22.255Z,20.05
2019-03-22T08:38:28.611Z,20.45
2019-03-22T08:39:34.409Z,20.58
2019-03-22T08:40:40.993Z,21.85
2019-03-22T08:41:47.110Z,20.61
2019-03-22T08:42:52.929Z,19.52
2019-03-22T08:44:02.678Z,19.01
2019-03-22T08:45:11.191Z,19.45
2019-03-22T08:46:15.867Z,18.48
2019-03-22T08:47:33.130Z,19.21
2019-03-22T08:48:29.721Z,19.51
2019-03-22T08:49:35.724Z,18.38
2019-03-22T08:50:41.930Z,16.95
2019-03-22T08:51:49.605Z,17.25
2019-03-22T08:52:54.707Z,16.99
2019-03-22T08:54:02.644Z,17.15
2019-03-22T08:55:08.442Z,17.87
2019-03-22T08:56:14.451Z,19.18
2019-03-22T08:57:20.284Z,19.12
2019-03-22T08:58:27.941Z,19.45
2019-03-22T08:59:34.476Z,18.30
2019-03-22T09:00:40.107Z,18.88
2019-03-22T09:01:46.941Z,17.66
2019-03-22T09:02:53.752Z,17.76
2019-03-22T09:03:59.981Z,16.89
2019-03-22T09:05:06.386Z,18.41
2019-03-22T09:06:13.798Z,16.96
2019-03-22T09:07:19.817Z,16.46
2019-03-22T09:08:26.278Z,17.64
2019-03-22T09:09:41.420Z,16.51
2019-03-22T09:10:41.495Z,15.66
2019-03-22T09:11:48.325Z,15.36
2019-03-22T09:12:54.115Z,14.49
2019-03-22T09:14:00.173Z,14.89
2019-03-22T09:15:06.100Z,14.39
2019-03-22T09:16:12.400Z,14.68
2019-03-22T09:17:19.046Z,14.11
2019-03-22T09:18:25.698Z,14.10
2019-03-22T09:19:31.577Z,13.65
2019-03-22T09:20:37.863Z,14.60
2019-03-22T09:21:44.800Z,15.92
2019-03-22T09:22:50.818Z,16.26
2019-03-22T09:23:56.997Z,16.03
2019-03-22T09:25:03.052Z,14.71
2019-03-22T09:26:09.054Z,13.97
2019-03-22T09:27:15.775Z,13.97
2019-03-22T09:28:22.377Z,13.02
2019-03-22T09:29:28.128Z,12.42
2019-03-22T09:30:34.445Z,11.65
2019-03-22T09:31:40.464Z,13.49
2019-03-22T09:32:46.557Z,13.42
2019-03-22T09:33:53.099Z,12.46
2019-03-22T09:34:59.906Z,13.45
2019-03-22T09:36:06.451Z,13.77
2019-03-22T09:37:12.505Z,13.56
2019-03-22T09:38:18.827Z,12.65
2019-03-22T09:39:26.051Z,13.01
2019-03-22T09:40:33.576Z,12.77
2019-03-22T09:41:40.404Z,13.68
2019-03-22T09:42:48.128Z,13.41
2019-03-22T09:43:54.270Z,13.27
2019-03-22T09:45:00.051Z,12.15
2019-03-22T09:46:06.995Z,11.13
2019-03-22T09:47:12.725Z,10.76
2019-03-22T09:48:18.492Z,11.20
2019-03-22T09:49:25.309Z,10.96
2019-03-22T09:50:31.396Z,10.56
2019-03-22T09:51:37.443Z,10.26
2019-03-22T09:52:43.829Z,10.15
2019-03-22T09:53:49.956Z,10.68
2019-03-22T09:54:55.494Z,11.30
2019-03-22T09:56:03.207Z,11.95
2019-03-22T09:57:09.250Z,12.28
2019-03-22T09:58:15.359Z,12.17
2019-03-22T09:59:21.921Z,10.85
2019-03-22T10:00:32.240Z,10.88
2019-03-22T10:01:38.111Z,12.05
2019-03-22T10:02:44.670Z,12.67
2019-03-22T10:03:51.579Z,14.17
2019-03-22T10:04:57.405Z,16.68
2019-03-22T10:06:04.276Z,18.00
2019-03-22T10:07:10.950Z,18.23
2019-03-22T10:08:16.845Z,19.56
2019-03-22T10:09:23.084Z,21.24
2019-03-22T10:10:29.138Z,21.84
2019-03-22T10:11:35.240Z,21.66
2019-03-22T10:12:41.420Z,23.46
2019-03-22T10:13:48.474Z,22.53
2019-03-22T10:14:55.312Z,23.35
2019-03-22T10:16:01.044Z,23.06
2019-03-22T10:17:06.605Z,22.51
2019-03-22T10:18:12.650Z,23.23
2019-03-22T10:19:18.678Z,23.08
2019-03-22T10:20:24.950Z,23.39
2019-03-22T10:21:31.676Z,25.06
2019-03-22T10:22:37.786Z,24.01
2019-03-22T10:23:44.792Z,23.06
2019-03-22T10:24:51.932Z,22.62
2019-03-22T10:25:58.412Z,23.17
2019-03-22T10:27:05.330Z,23.47
2019-03-22T10:28:11.007Z,24.89
2019-03-22T10:29:17.798Z,23.51
2019-03-22T10:30:23.963Z,23.95
2019-03-22T10:31:37.237Z,23.88
2019-03-22T10:32:38.651Z,23.29
2019-03-22T10:33:44.326Z,23.78
2019-03-22T10:34:50.652Z,23.76
2019-03-22T10:35:57.196Z,23.64
2019-03-22T10:37:03.226Z,24.08
2019-03-22T10:38:15.944Z,24.08
2019-03-22T10:39:16.452Z,23.55
2019-03-22T10:40:23.032Z,23.01
2019-03-22T10:41:28.846Z,23.00
2019-03-22T10:42:34.759Z,23.39
2019-03-22T10:43:41.613Z,23.00
2019-03-22T10:44:47.472Z,24.60
2019-03-22T10:45:53.476Z,23.14
2019-03-22T10:46:59.506Z,23.43
2019-03-22T10:48:06.137Z,24.28
2019-03-22T10:49:12.682Z,24.07
2019-03-22T10:50:18.403Z,23.91
2019-03-22T10:51:24.613Z,23.95
2019-03-22T10:52:31.256Z,23.87
2019-03-22T10:53:38.689Z,23.74
2019-03-22T10:54:45.303Z,23.39
2019-03-22T10:55:51.346Z,24.29
2019-03-22T10:56:57.241Z,23.78
2019-03-22T10:58:03.566Z,24.61
2019-03-22T10:59:10.437Z,25.06
2019-03-22T11:00:18.196Z,25.63
2019-03-22T11:01:25.400Z,25.21
2019-03-22T11:02:31.160Z,24.97
2019-03-22T11:03:37.786Z,24.11
2019-03-22T11:04:43.717Z,24.45
2019-03-22T11:05:49.791Z,25.60
2019-03-22T11:06:56.061Z,24.52
2019-03-22T11:08:01.866Z,24.55
2019-03-22T11:09:09.921Z,24.17
2019-03-22T11:10:16.198Z,23.90
2019-03-22T11:11:21.824Z,23.72
2019-03-22T11:12:27.655Z,23.63
2019-03-22T11:13:33.695Z,24.41
2019-03-22T11:14:39.715Z,25.20
2019-03-22T11:15:48.694Z,23.93
2019-03-22T11:16:55.597Z,23.64
2019-03-22T11:18:03.106Z,23.91
2019-03-22T11:19:09.506Z,24.42
2019-03-22T11:20:16.376Z,23.75
2019-03-22T11:21:22.161Z,23.49
2019-03-22T11:22:27.834Z,23.49
2019-03-22T11:23:33.569Z,23.97
2019-03-22T11:24:39.670Z,24.25
2019-03-22T11:25:46.616Z,24.17
2019-03-22T11:26:53.156Z,24.02
2019-03-22T11:27:59.649Z,23.50
2019-03-22T11:29:06.597Z,23.13
2019-03-22T11:30:14.971Z,23.54
2019-03-22T11:31:28.389Z,23.94
2019-03-22T11:32:30.133Z,23.89
2019-03-22T11:33:36.228Z,23.95
2019-03-22T11:34:42.394Z,23.91
2019-03-22T11:35:48.429Z,24.28
2019-03-22T11:36:55.108Z,24.71
2019-03-22T11:38:02.047Z,24.41
2019-03-22T11:39:15.807Z,23.99
2019-03-22T11:40:19.638Z,23.76
2019-03-22T11:41:25.190Z,23.63
2019-03-22T11:42:30.974Z,23.61
2019-03-22T11:43:37.785Z,23.56
2019-03-22T11:44:44.082Z,23.58
2019-03-22T11:45:49.879Z,23.14
2019-03-22T11:46:55.899Z,23.25
2019-03-22T11:48:05.324Z,23.92
2019-03-22T11:49:11.399Z,23.93
2019-03-22T11:50:17.143Z,23.70
2019-03-22T11:51:24.118Z,23.19
2019-03-22T11:52:30.990Z,22.54
2019-03-22T11:53:37.033Z,20.98
2019-03-22T11:54:44.106Z,17.02
2019-03-22T11:55:50.467Z,14.52
2019-03-22T11:56:56.944Z,12.98
2019-03-22T11:58:02.784Z,13.50
2019-03-22T11:59:08.566Z,13.93
2019-03-22T12:00:17.884Z,12.78
2019-03-22T12:01:23.678Z,12.89
2019-03-22T12:02:30.251Z,11.49
2019-03-22T12:03:36.304Z,10.94
2019-03-22T12:04:42.652Z,11.55
2019-03-22T12:05:48.421Z,11.04
2019-03-22T12:06:53.975Z,11.49
2019-03-22T12:08:00.896Z,11.77
2019-03-22T12:09:09.853Z,10.67
2019-03-22T12:10:16.272Z,11.61
2019-03-22T12:11:22.889Z,9.72
2019-03-22T12:12:29.550Z,11.61
2019-03-22T12:13:35.301Z,12.25
2019-03-22T12:14:43.197Z,10.77
2019-03-22T12:15:49.156Z,10.33
2019-03-22T12:16:56.789Z,11.60
2019-03-22T12:18:03.429Z,11.17
2019-03-22T12:19:10.268Z,10.40
2019-03-22T12:20:17.797Z,10.04
2019-03-22T12:21:23.635Z,9.01
2019-03-22T12:22:29.938Z,11.41
2019-03-22T12:23:35.990Z,9.98
2019-03-22T12:24:42.965Z,10.09
2019-03-22T12:25:48.775Z,10.91
2019-03-22T12:26:54.332Z,9.92
2019-03-22T12:28:00.566Z,10.22
2019-03-22T12:29:08.287Z,9.87
2019-03-22T12:30:16.165Z,9.22
2019-03-22T12:31:22.885Z,11.61
2019-03-22T12:32:32.346Z,10.63
2019-03-22T12:33:37.512Z,9.81
2019-03-22T12:34:44.496Z,11.08
2019-03-22T12:35:50.533Z,10.20
2019-03-22T12:36:57.028Z,11.33
2019-03-22T12:38:03.115Z,10.83
2019-03-22T12:39:10.693Z,11.89
2019-03-22T12:40:18.724Z,12.34
2019-03-22T12:41:25.125Z,14.42
2019-03-22T12:42:31.689Z,15.30
2019-03-22T12:43:37.192Z,16.20
2019-03-22T12:44:43.000Z,16.37
2019-03-22T12:45:49.527Z,17.34
2019-03-22T12:46:57.120Z,17.61
2019-03-22T12:48:03.436Z,17.60
2019-03-22T12:49:09.527Z,17.61
2019-03-22T12:50:15.915Z,17.26
2019-03-22T12:51:21.756Z,18.17
2019-03-22T12:52:27.831Z,17.72
2019-03-22T12:53:34.934Z,18.27
2019-03-22T12:54:40.700Z,18.04
2019-03-22T12:55:48.666Z,18.06
2019-03-22T12:56:54.042Z,17.74
2019-03-22T12:58:00.222Z,18.45
2019-03-22T12:59:06.097Z,18.31
2019-03-22T13:00:14.845Z,18.31
2019-03-22T13:01:21.439Z,19.08
2019-03-22T13:02:27.770Z,18.35
2019-03-22T13:03:33.830Z,18.90
2019-03-22T13:04:39.881Z,18.69
2019-03-22T13:05:45.723Z,18.72
2019-03-22T13:06:53.143Z,18.73
2019-03-22T13:07:59.839Z,19.15
2019-03-22T13:09:07.853Z,19.18
2019-03-22T13:10:14.354Z,18.82
2019-03-22T13:11:21.250Z,19.62
2019-03-22T13:12:28.765Z,19.24
2019-03-22T13:13:34.834Z,19.39
2019-03-22T13:14:40.920Z,19.91
2019-03-22T13:15:46.661Z,19.62
2019-03-22T13:16:53.011Z,19.76
2019-03-22T13:17:59.067Z,19.49
2019-03-22T13:19:06.002Z,20.71
2019-03-22T13:20:12.863Z,19.99
2019-03-22T13:21:18.611Z,19.60
2019-03-22T13:22:25.192Z,18.93
2019-03-22T13:23:30.855Z,19.38
2019-03-22T13:24:37.474Z,19.96
2019-03-22T13:25:43.528Z,20.24
2019-03-22T13:26:50.203Z,19.72
2019-03-22T13:27:56.331Z,20.37
2019-03-22T13:29:02.594Z,19.98
2019-03-22T13:30:09.201Z,19.74
2019-03-22T13:31:15.288Z,19.73
2019-03-22T13:32:21.037Z,20.13
2019-03-22T13:33:27.622Z,19.98
2019-03-22T13:34:34.467Z,19.99
2019-03-22T13:35:41.017Z,20.09
2019-03-22T13:36:48.321Z,19.94
2019-03-22T13:37:55.669Z,19.83
2019-03-22T13:39:01.703Z,19.39
2019-03-22T13:40:08.939Z,18.79
2019-03-22T13:41:14.703Z,18.73
2019-03-22T13:42:20.825Z,19.25
2019-03-22T13:43:27.027Z,19.89
2019-03-22T13:44:33.105Z,19.25
2019-03-22T13:45:39.443Z,19.09
2019-03-22T13:46:46.667Z,19.31
2019-03-22T13:47:53.491Z,19.95
2019-03-22T13:49:01.689Z,19.37
2019-03-22T13:50:09.251Z,20.21
2019-03-22T13:51:16.013Z,19.79
2019-03-22T13:52:23.485Z,19.63
2019-03-22T13:53:29.503Z,19.83
2019-03-22T13:54:37.063Z,19.89
2019-03-22T13:55:43.493Z,19.13
2019-03-22T13:56:48.999Z,19.69
2019-03-22T13:57:54.789Z,19.59
2019-03-22T13:59:01.165Z,19.62
2019-03-22T14:00:08.226Z,19.75
2019-03-22T14:01:14.245Z,19.49
2019-03-22T14:02:20.005Z,19.62
2019-03-22T14:03:26.643Z,19.79
2019-03-22T14:04:32.385Z,19.97
2019-03-22T14:05:38.715Z,20.36
2019-03-22T14:06:44.731Z,20.01
2019-03-22T14:07:51.141Z,20.48
2019-03-22T14:08:56.678Z,20.37
2019-03-22T14:10:02.852Z,20.17
2019-03-22T14:11:09.362Z,20.18
2019-03-22T14:12:16.118Z,20.24
2019-03-22T14:13:22.649Z,20.46
2019-03-22T14:14:28.975Z,20.51
2019-03-22T14:15:36.067Z,20.05
2019-03-22T14:16:43.770Z,19.73
2019-03-22T14:17:51.029Z,20.45